Time;durP1;ratioP1;P1;durP2;ratioP2;P2;SDS_P1;SDS_P2;PMS_P1;PMS_P2;Temp;Humidity;BMP_temperature;BMP_pressure;BME280_temperature;BME280_humidity;BME280_pressure;Samples;Min_cycle;Max_cycle;Signal;HPM_P1;HPM_P2
2022/04/18 00:01:04;;;;;;;0.63;0.20;;;;;;;5.50;81.56;99412.78;3132962;28;20083;-75
2022/04/18 00:02:36;;;;;;;0.73;0.30;;;;;;;5.49;81.39;99411.94;3133738;28;20056;-74
2022/04/18 00:04:08;;;;;;;1.17;0.32;;;;;;;5.51;81.21;99407.59;3130801;28;20576;-74
2022/04/18 00:05:40;;;;;;;0.95;0.20;;;;;;;5.51;81.29;99407.59;3133582;28;20075;-74
2022/04/18 00:07:11;;;;;;;0.50;0.30;;;;;;;5.51;81.27;99407.59;3129364;28;20049;-75
2022/04/18 00:08:43;;;;;;;0.77;0.30;;;;;;;5.52;81.17;99404.09;3133666;28;20056;-75
2022/04/18 00:10:15;;;;;;;0.85;0.30;;;;;;;5.54;81.13;99397.16;3132490;28;20476;-75
2022/04/18 00:11:46;;;;;;;1.40;0.35;;;;;;;5.52;80.98;99393.78;3133171;28;20075;-75
2022/04/18 00:13:19;;;;;;;0.40;0.20;;;;;;;5.58;80.95;99403.06;3133045;28;20053;-75
2022/04/18 00:14:51;;;;;;;0.73;0.38;;;;;;;5.54;80.75;99397.16;3133514;28;20049;-75
2022/04/18 00:16:23;;;;;;;0.95;0.28;;;;;;;5.54;80.53;99402.31;3133671;28;20174;-75
2022/04/18 00:17:55;;;;;;;1.30;0.30;;;;;;;5.55;80.62;99398.00;3132136;28;20053;-74
2022/04/18 00:19:27;;;;;;;1.42;0.40;;;;;;;5.50;80.87;99385.22;3133411;28;20068;-74
2022/04/18 00:20:58;;;;;;;0.45;0.20;;;;;;;5.55;80.79;99392.84;3136425;28;20059;-75
2022/04/18 00:22:30;;;;;;;0.47;0.20;;;;;;;5.58;81.02;99395.31;3146258;28;20044;-74
2022/04/18 00:24:01;;;;;;;2.22;0.50;;;;;;;5.60;80.98;99394.38;3141340;28;20048;-74
2022/04/18 00:25:33;;;;;;;1.98;0.40;;;;;;;5.61;80.86;99392.66;3145853;28;20059;-74
2022/04/18 00:27:05;;;;;;;0.57;0.30;;;;;;;5.56;80.66;99369.56;3143148;28;20134;-74
2022/04/18 00:28:39;;;;;;;0.30;0.20;;;;;;;5.61;80.64;99388.31;3145954;28;20505;-75
2022/04/18 00:30:11;;;;;;;0.70;0.30;;;;;;;5.65;80.50;99394.25;3137316;28;20132;-75
2022/04/18 00:31:44;;;;;;;0.47;0.22;;;;;;;5.65;80.66;99387.34;3145207;28;20185;-74
2022/04/18 00:33:15;;;;;;;0.30;0.20;;;;;;;5.68;80.65;99392.41;3145843;28;20094;-75
2022/04/18 00:34:47;;;;;;;0.30;0.10;;;;;;;5.69;80.55;99388.09;3145608;28;20045;-75
2022/04/18 00:36:18;;;;;;;0.47;0.20;;;;;;;5.70;80.50;99387.19;3145829;28;20052;-74
2022/04/18 00:37:50;;;;;;;0.73;0.20;;;;;;;5.68;80.42;99374.34;3141577;28;20049;-74
2022/04/18 00:39:22;;;;;;;0.32;0.20;;;;;;;5.55;80.47;99354.94;3145864;28;20478;-74
2022/04/18 00:40:54;;;;;;;0.28;0.20;;;;;;;5.78;80.63;99382.63;3144975;28;20135;-75
2022/04/18 00:42:26;;;;;;;0.55;0.20;;;;;;;5.76;80.70;99380.97;3145867;28;20485;-74
2022/04/18 00:43:59;;;;;;;0.40;0.20;;;;;;;5.73;80.80;99371.59;3141990;28;20099;-74
2022/04/18 00:45:31;;;;;;;0.65;0.32;;;;;;;5.71;80.75;99368.22;3144072;28;20052;-75
2022/04/18 00:47:03;;;;;;;0.40;0.30;;;;;;;5.67;80.76;99370.03;3142105;28;20499;-74
2022/04/18 00:48:35;;;;;;;0.80;0.32;;;;;;;5.62;80.76;99361.63;3141858;28;20131;-74
2022/04/18 00:50:08;;;;;;;2.55;0.40;;;;;;;5.65;80.92;99364.09;3145467;28;20460;-75
2022/04/18 00:51:40;;;;;;;1.15;0.50;;;;;;;5.65;81.16;99360.69;3141954;28;20079;-74
2022/04/18 00:53:12;;;;;;;0.50;0.30;;;;;;;5.67;81.10;99367.47;3145509;28;20048;-74
2022/04/18 00:54:44;;;;;;;1.05;0.40;;;;;;;5.67;81.30;99361.44;3145218;28;20057;-75
2022/04/18 00:56:18;;;;;;;1.25;0.50;;;;;;;5.69;81.41;99363.09;3145631;28;20048;-74
2022/04/18 00:57:52;;;;;;;1.85;0.40;;;;;;;5.74;81.66;99364.66;3142508;28;20048;-74
2022/04/18 00:59:25;;;;;;;0.63;0.30;;;;;;;5.74;81.73;99360.38;3145522;28;20113;-74
2022/04/18 01:00:56;;;;;;;;;;;;;;;5.75;81.76;99362.06;3143179;28;20540;-74
2022/04/18 01:02:28;;;;;;;0.80;0.35;;;;;;;5.70;81.73;99353.59;3145396;28;20004;-74
2022/04/18 01:04:00;;;;;;;1.50;0.30;;;;;;;5.74;81.73;99356.91;3143209;28;20048;-74
2022/04/18 01:05:32;;;;;;;1.23;0.32;;;;;;;5.74;81.72;99362.97;3145514;28;20067;-75
2022/04/18 01:07:04;;;;;;;7.20;0.75;;;;;;;5.74;81.53;99362.09;3145481;28;20057;-74
2022/04/18 01:08:36;;;;;;;0.57;0.32;;;;;;;5.78;81.45;99364.53;3144439;28;20052;-74
2022/04/18 01:10:08;;;;;;;0.47;0.28;;;;;;;5.80;81.55;99361.91;3145647;28;20044;-75
2022/04/18 01:11:40;;;;;;;0.67;0.40;;;;;;;5.77;81.57;99351.66;3139092;28;20049;-75
2022/04/18 01:13:12;;;;;;;0.80;0.40;;;;;;;5.84;81.52;99372.09;3145478;28;20109;-74
2022/04/18 01:14:49;;;;;;;1.08;0.47;;;;;;;5.69;81.80;99329.50;3144118;28;20543;-74
2022/04/18 01:16:20;;;;;;;0.90;0.40;;;;;;;5.88;81.56;99350.41;3145291;28;20536;-74
2022/04/18 01:17:52;;;;;;;0.60;0.20;;;;;;;5.90;81.60;99350.38;3141034;28;20060;-74
2022/04/18 01:19:24;;;;;;;0.60;0.28;;;;;;;5.91;81.71;99350.31;3145180;28;20525;-75
2022/04/18 01:20:56;;;;;;;0.90;0.25;;;;;;;5.84;81.66;99346.25;3144807;28;20499;-74
2022/04/18 01:22:29;;;;;;;0.70;0.50;;;;;;;5.87;81.90;99356.47;3144810;28;20815;-75
2022/04/18 01:24:01;;;;;;;2.13;1.15;;;;;;;5.87;81.83;99342.72;3144770;28;20078;-74
2022/04/18 01:29:13;;;;;;;0.38;0.25;;;;;;;5.89;81.80;99340.94;3144935;28;20611;-74
2022/04/18 01:30:44;;;;;;;1.00;0.50;;;;;;;5.91;81.78;99341.72;3144862;28;20045;-75
2022/04/18 01:32:16;;;;;;;0.82;0.30;;;;;;;5.95;81.88;99351.09;3145226;28;20131;-74
2022/04/18 01:33:47;;;;;;;1.33;0.45;;;;;;;5.96;81.89;99346.78;3144741;28;20102;-74
2022/04/18 01:35:19;;;;;;;3.67;0.30;;;;;;;5.91;81.85;99341.72;3143053;28;20516;-74
2022/04/18 01:36:52;;;;;;;0.57;0.30;;;;;;;5.95;81.40;99345.09;3135912;28;20048;-74
2022/04/18 01:38:23;;;;;;;0.73;0.25;;;;;;;5.88;81.44;99334.91;3137291;28;20052;-74
2022/04/18 01:39:54;;;;;;;0.60;0.22;;;;;;;5.92;81.40;99333.09;3135497;28;20114;-74
2022/04/18 01:41:26;;;;;;;0.52;0.20;;;;;;;5.89;81.43;99328.84;3140689;28;20106;-74
2022/04/18 01:42:57;;;;;;;0.68;0.30;;;;;;;5.93;81.42;99337.38;3132424;28;20056;-74
2022/04/18 01:44:29;;;;;;;0.55;0.10;;;;;;;5.93;81.40;99325.28;3143617;28;20052;-74
2022/04/18 01:46:00;;;;;;;0.40;0.30;;;;;;;5.92;81.16;99325.31;3137921;28;20150;-74
2022/04/18 01:47:32;;;;;;;1.08;0.38;;;;;;;5.90;81.26;99325.38;3143893;28;20074;-74
2022/04/18 01:49:04;;;;;;;1.33;0.30;;;;;;;5.89;81.30;99331.44;3142434;28;20303;-74
2022/04/18 01:50:35;;;;;;;1.58;0.98;;;;;;;5.72;81.38;99302.72;3145049;28;20059;-74
2022/04/18 01:52:09;;;;;;;1.00;0.50;;;;;;;5.88;81.38;99334.06;3144871;28;20418;-74
2022/04/18 01:53:41;;;;;;;1.38;0.73;;;;;;;5.87;81.38;99329.81;3144792;28;20067;-74
2022/04/18 01:55:12;;;;;;;1.02;0.68;;;;;;;5.90;81.33;99330.53;3140587;28;20110;-75
2022/04/18 01:56:44;;;;;;;0.45;0.20;;;;;;;5.85;81.19;99324.66;3127440;28;20057;-74
2022/04/18 01:58:16;;;;;;;0.40;0.20;;;;;;;5.87;81.10;99327.22;3142966;28;20210;-74
2022/04/18 01:59:47;;;;;;;0.82;0.20;;;;;;;5.86;81.00;99322.94;3145194;28;20106;-74
2022/04/18 02:01:19;;;;;;;0.60;0.20;;;;;;;5.86;81.06;99315.19;3138386;28;20052;-74
2022/04/18 02:02:50;;;;;;;0.60;0.30;;;;;;;5.85;81.23;99321.25;3133891;28;20063;-74
2022/04/18 02:04:22;;;;;;;0.60;0.20;;;;;;;5.86;81.21;99321.22;3141748;28;20075;-74
2022/04/18 02:05:55;;;;;;;0.28;0.20;;;;;;;5.82;80.93;99323.94;3144577;28;20559;-74
2022/04/18 02:07:29;;;;;;;0.60;0.20;;;;;;;5.80;81.05;99305.91;3144839;28;20048;-74
2022/04/18 02:09:01;;;;;;;0.50;0.25;;;;;;;5.81;80.93;99314.50;3144914;28;20144;-74
2022/04/18 02:10:33;;;;;;;0.65;0.30;;;;;;;5.81;80.92;99312.75;3144423;28;20071;-74
2022/04/18 02:12:06;;;;;;;0.60;0.30;;;;;;;5.81;81.00;99309.34;3145049;28;20056;-74
2022/04/18 02:13:38;;;;;;;0.65;0.20;;;;;;;5.84;80.90;99309.22;3144849;28;20425;-74
2022/04/18 02:15:11;;;;;;;1.35;0.22;;;;;;;5.76;80.69;99303.47;3146336;28;20045;-74
2022/04/18 02:16:42;;;;;;;0.82;0.40;;;;;;;5.77;80.65;99310.31;3141831;28;20114;-74
2022/04/18 02:18:14;;;;;;;1.50;0.57;;;;;;;5.76;80.54;99316.38;3144365;28;20086;-74
2022/04/18 02:19:46;;;;;;;1.77;0.38;;;;;;;5.70;80.58;99310.50;3138166;28;20114;-74
2022/04/18 02:21:19;;;;;;;0.32;0.22;;;;;;;5.73;80.47;99309.56;3138645;28;20057;-74
2022/04/18 02:22:52;;;;;;;0.77;0.35;;;;;;;5.72;80.50;99313.06;3141542;28;20090;-74
2022/04/18 02:24:24;;;;;;;0.82;0.40;;;;;;;5.73;80.36;99303.56;3147514;28;20101;-74
2022/04/18 02:25:56;;;;;;;0.50;0.20;;;;;;;5.71;80.38;99295.88;3146950;28;20048;-74
2022/04/18 02:27:27;;;;;;;0.43;0.22;;;;;;;5.70;80.35;99309.69;3147680;28;20052;-74
2022/04/18 02:28:59;;;;;;;0.70;0.20;;;;;;;5.66;80.25;99308.94;3146707;28;20056;-74
2022/04/18 02:30:31;;;;;;;0.77;0.30;;;;;;;5.64;80.08;99310.72;3146734;28;20253;-74
2022/04/18 02:33:52;;;;;;;0.50;0.30;;;;;;;5.64;80.18;99310.72;3147095;28;20359;-74
2022/04/18 02:35:25;;;;;;;0.63;0.30;;;;;;;5.62;80.20;99312.53;3147189;28;20056;-74
2022/04/18 02:36:55;;;;;;;;;;;;;;;5.62;80.19;99311.66;3146924;28;20132;-74
2022/04/18 02:38:29;;;;;;;0.60;0.30;;;;;;;5.57;79.97;99314.41;3146860;28;19920;-74
2022/04/18 02:40:01;;;;;;;1.15;0.30;;;;;;;5.56;80.10;99314.44;3146840;28;20044;-74
2022/04/18 02:41:33;;;;;;;2.92;0.28;;;;;;;5.57;79.97;99314.41;3146901;28;20044;-74
2022/04/18 02:43:05;;;;;;;0.50;0.30;;;;;;;5.60;80.09;99316.91;3146864;28;20586;-74
2022/04/18 02:44:36;;;;;;;0.85;0.43;;;;;;;5.61;79.94;99309.97;3146909;28;20136;-74
2022/04/18 02:46:08;;;;;;;0.60;0.30;;;;;;;5.64;80.06;99302.97;3146983;28;20159;-74
2022/04/18 02:47:40;;;;;;;1.45;0.60;;;;;;;5.61;80.17;99294.50;3146724;28;20074;-74
2022/04/18 02:49:12;;;;;;;0.63;0.32;;;;;;;5.73;80.19;99307.00;3146447;28;20040;-74
2022/04/18 02:50:43;;;;;;;1.05;0.50;;;;;;;5.73;80.34;99312.16;3147137;28;20501;-74
2022/04/18 02:52:14;;;;;;;1.73;0.90;;;;;;;5.76;80.39;99304.31;3140493;28;20487;-74
2022/04/18 02:53:47;;;;;;;1.83;0.80;;;;;;;5.78;80.66;99309.44;3146643;28;20330;-75
2022/04/18 02:55:19;;;;;;;0.98;0.68;;;;;;;5.80;80.63;99300.75;3146634;28;20048;-74
2022/04/18 02:56:51;;;;;;;2.45;0.70;;;;;;;5.83;80.64;99305.81;3146691;28;20048;-74
2022/04/18 02:58:23;;;;;;;2.22;0.70;;;;;;;5.83;80.86;99305.81;3146711;28;20437;-74
2022/04/18 02:59:55;;;;;;;1.92;1.10;;;;;;;5.79;80.90;99304.19;3146779;28;20056;-74
2022/04/18 03:01:27;;;;;;;1.73;1.05;;;;;;;5.75;81.07;99297.47;3144516;28;20106;-74
2022/04/18 03:02:59;;;;;;;1.30;0.80;;;;;;;5.78;81.22;99309.44;3146903;28;20077;-74
2022/04/18 03:04:30;;;;;;;2.42;1.20;;;;;;;5.77;81.36;99310.31;3146593;28;20049;-74
2022/04/18 03:06:02;;;;;;;1.65;0.90;;;;;;;5.70;81.39;99300.19;3146552;28;20098;-74
2022/04/18 03:07:34;;;;;;;2.45;1.10;;;;;;;5.66;81.66;99305.53;3146655;28;20102;-74
2022/04/18 03:09:08;;;;;;;1.35;0.88;;;;;;;5.66;82.02;99305.53;3146444;28;20121;-74
2022/04/18 03:12:29;;;;;;;1.95;0.90;;;;;;;5.59;82.40;99311.75;3146625;28;20505;-74
2022/04/18 03:14:00;;;;;;;2.38;1.10;;;;;;;5.55;82.34;99305.84;3146461;28;20053;-74
2022/04/18 03:15:32;;;;;;;5.45;1.23;;;;;;;5.54;82.41;99308.50;3146563;28;20109;-74
2022/04/18 03:17:03;;;;;;;1.58;0.80;;;;;;;5.45;82.61;99307.06;3145719;28;20053;-74
2022/04/18 03:18:35;;;;;;;3.10;0.80;;;;;;;5.48;82.79;99314.72;3139393;28;20151;-74
2022/04/18 03:20:08;;;;;;;2.58;1.40;;;;;;;5.42;82.71;99305.41;3146217;28;20048;-74
2022/04/18 03:21:40;;;;;;;2.30;1.35;;;;;;;5.43;82.86;99311.44;3146636;28;20124;-74
2022/04/18 03:23:12;;;;;;;2.95;1.38;;;;;;;5.40;83.21;99311.53;3146360;28;20067;-74
2022/04/18 03:24:46;;;;;;;2.65;1.38;;;;;;;5.31;83.10;99311.81;3146233;28;20059;-74
2022/04/18 03:26:18;;;;;;;6.38;2.30;;;;;;;5.27;83.36;99310.25;3145287;28;20052;-74
2022/04/18 03:27:50;;;;;;;2.58;1.40;;;;;;;5.29;83.54;99311.84;3146489;28;20175;-74
2022/04/18 03:29:22;;;;;;;4.63;1.60;;;;;;;5.18;83.48;99286.41;3146332;28;20056;-74
2022/04/18 03:30:53;;;;;;;3.83;1.55;;;;;;;5.29;83.69;99305.84;3146257;28;20824;-74
2022/04/18 03:32:25;;;;;;;2.47;1.80;;;;;;;5.28;83.71;99301.59;3145779;28;20063;-74
2022/04/18 03:33:56;;;;;;;3.05;1.67;;;;;;;5.26;83.74;99301.63;3143028;28;20059;-75
2022/04/18 03:35:28;;;;;;;2.90;1.60;;;;;;;5.25;83.62;99298.19;3146636;28;20048;-74
2022/04/18 03:40:40;;;;;;;3.03;1.90;;;;;;;5.29;83.64;99293.78;3135147;28;20045;-75
2022/04/18 03:42:12;;;;;;;3.55;1.90;;;;;;;5.13;83.69;99267.63;3145111;28;20052;-74
2022/04/18 03:43:44;;;;;;;1.85;1.40;;;;;;;5.24;83.86;99275.88;3143680;28;20114;-74
2022/04/18 03:45:16;;;;;;;2.65;1.80;;;;;;;5.33;83.69;99300.56;3136330;28;20480;-74
2022/04/18 03:46:47;;;;;;;4.38;1.75;;;;;;;5.35;83.74;99300.50;3140426;28;20446;-74
2022/04/18 03:48:19;;;;;;;3.88;2.08;;;;;;;5.35;83.83;99298.75;3146263;28;20139;-74
2022/04/18 03:49:50;;;;;;;5.53;2.17;;;;;;;5.32;83.77;99298.84;3146018;28;20048;-74
2022/04/18 03:51:22;;;;;;;3.78;2.22;;;;;;;5.23;84.02;99284.53;3139561;28;20477;-74
2022/04/18 03:52:54;;;;;;;4.57;2.53;;;;;;;5.29;83.89;99301.53;3146320;28;20421;-74
2022/04/18 03:54:25;;;;;;;3.45;2.05;;;;;;;5.28;84.02;99299.84;3145863;28;20052;-74
2022/04/18 03:55:58;;;;;;;3.15;1.85;;;;;;;5.21;84.13;99299.19;3146092;28;20055;-74
2022/04/18 03:57:30;;;;;;;2.70;1.73;;;;;;;5.20;84.21;99296.66;3145524;28;20513;-74
2022/04/18 03:59:01;;;;;;;3.78;1.60;;;;;;;5.17;84.30;99289.00;3137981;28;20559;-74
2022/04/18 04:00:34;;;;;;;2.47;1.27;;;;;;;5.22;84.25;99307.78;3142749;28;20151;-74
2022/04/18 04:02:06;;;;;;;3.15;1.77;;;;;;;5.02;84.41;99275.69;3145978;28;20048;-74
2022/04/18 04:03:38;;;;;;;2.60;1.55;;;;;;;5.11;84.43;99284.03;3146350;28;20036;-74
2022/04/18 04:05:10;;;;;;;2.72;1.60;;;;;;;5.15;84.52;99289.06;3145685;28;20052;-74
2022/04/18 04:06:41;;;;;;;2.40;1.58;;;;;;;5.18;84.59;99301.88;3145652;28;20060;-74
2022/04/18 04:08:12;;;;;;;3.97;1.90;;;;;;;5.17;84.46;99302.75;3145671;28;20452;-74
2022/04/18 04:09:44;;;;;;;3.00;1.73;;;;;;;5.23;84.51;99309.47;3146137;28;20057;-74
2022/04/18 04:11:17;;;;;;;3.53;2.30;;;;;;;5.27;84.45;99313.66;3145321;28;20044;-75
2022/04/18 04:12:49;;;;;;;2.80;1.70;;;;;;;5.32;84.53;99309.16;3145976;28;20060;-74
2022/04/18 04:14:21;;;;;;;3.75;1.95;;;;;;;5.37;84.45;99309.88;3145732;28;20056;-73
2022/04/18 04:15:52;;;;;;;2.72;1.75;;;;;;;5.41;84.31;99311.50;3145221;28;20056;-74
2022/04/18 04:17:24;;;;;;;2.90;2.00;;;;;;;5.44;84.55;99302.78;3145859;28;20483;-75
2022/04/18 04:18:56;;;;;;;3.97;2.17;;;;;;;5.52;84.48;99311.13;3145357;28;20177;-74
2022/04/18 04:20:28;;;;;;;3.90;2.40;;;;;;;5.53;84.48;99314.56;3145765;28;20056;-75
2022/04/18 04:21:59;;;;;;;4.07;1.88;;;;;;;5.53;84.28;99311.97;3145648;28;20118;-74
2022/04/18 04:23:30;;;;;;;2.63;1.77;;;;;;;5.51;84.04;99306.88;3143748;28;20070;-75
2022/04/18 04:25:02;;;;;;;2.83;1.83;;;;;;;5.54;84.11;99308.50;3139149;28;20121;-74
2022/04/18 04:26:36;;;;;;;2.58;1.73;;;;;;;5.57;84.10;99317.00;3145830;28;20511;-74
2022/04/18 04:28:07;;;;;;;2.92;2.08;;;;;;;5.58;83.96;99300.59;3145361;28;20053;-75
2022/04/18 04:29:38;;;;;;;3.33;1.80;;;;;;;5.56;84.17;99304.97;3145923;28;20567;-75
2022/04/18 04:31:09;;;;;;;2.92;2.00;;;;;;;5.60;84.16;99303.16;3144923;28;20475;-74
2022/04/18 04:32:41;;;;;;;3.13;1.50;;;;;;;5.55;84.22;99305.84;3145411;28;20142;-74
2022/04/18 04:34:13;;;;;;;4.40;1.90;;;;;;;5.46;84.04;99298.41;3145546;28;20052;-75
2022/04/18 04:35:45;;;;;;;3.67;1.83;;;;;;;5.37;84.28;99285.81;3145365;28;20055;-73
2022/04/18 04:37:17;;;;;;;2.67;1.52;;;;;;;5.46;84.08;99303.56;3143660;28;20040;-73
2022/04/18 04:38:49;;;;;;;4.95;1.77;;;;;;;5.44;84.40;99292.44;3145320;28;20513;-74
2022/04/18 04:40:21;;;;;;;4.35;2.35;;;;;;;5.48;84.36;99304.38;3145279;28;20067;-73
2022/04/18 04:41:54;;;;;;;4.93;1.90;;;;;;;5.47;84.42;99300.97;3145545;28;20482;-74
2022/04/18 04:43:28;;;;;;;5.55;2.17;;;;;;;5.52;84.45;99310.28;3145643;28;20048;-75
2022/04/18 04:45:00;;;;;;;3.33;2.15;;;;;;;5.43;84.51;99295.94;3145079;28;20533;-74
2022/04/18 04:46:31;;;;;;;9.45;3.05;;;;;;;5.49;84.53;99308.66;3145356;28;20107;-75
2022/04/18 04:48:04;;;;;;;6.38;2.50;;;;;;;5.42;84.65;99302.00;3145437;28;20048;-75
2022/04/18 04:49:35;;;;;;;18.92;4.80;;;;;;;5.41;84.81;99313.19;3145049;28;20052;-74
2022/04/18 04:51:07;;;;;;;15.85;4.85;;;;;;;5.35;84.99;99292.75;3145039;28;20440;-74
2022/04/18 04:52:38;;;;;;;5.90;2.72;;;;;;;5.46;84.98;99308.75;3145042;28;20812;-75
2022/04/18 04:54:10;;;;;;;4.25;2.38;;;;;;;5.42;85.13;99312.34;3145391;28;20049;-75
2022/04/18 04:55:42;;;;;;;4.05;2.53;;;;;;;5.40;85.17;99312.38;3144948;28;20048;-75
2022/04/18 04:57:16;;;;;;;6.68;2.90;;;;;;;5.44;85.20;99313.97;3145607;28;20090;-75
2022/04/18 04:58:48;;;;;;;7.18;2.50;;;;;;;5.48;85.00;99319.88;3139182;28;20053;-74
2022/04/18 05:00:20;;;;;;;7.78;4.45;;;;;;;5.54;85.01;99313.69;3145320;28;20048;-75
2022/04/18 05:01:52;;;;;;;6.05;3.38;;;;;;;5.59;84.99;99317.81;3145214;28;20048;-74
2022/04/18 05:03:25;;;;;;;6.85;3.67;;;;;;;5.59;84.92;99317.81;3145424;28;20118;-75
2022/04/18 05:04:57;;;;;;;5.43;3.17;;;;;;;5.58;85.23;99320.41;3145094;28;20505;-74
2022/04/18 05:06:29;;;;;;;4.68;2.67;;;;;;;5.55;85.27;99318.78;3145301;28;20056;-74
2022/04/18 05:08:00;;;;;;;5.72;3.10;;;;;;;5.50;85.20;99318.06;3144636;28;20052;-74
2022/04/18 05:09:32;;;;;;;6.38;2.30;;;;;;;5.48;85.28;99312.97;3145326;28;20159;-74
2022/04/18 05:11:04;;;;;;;5.25;3.15;;;;;;;5.49;85.04;99318.97;3145275;28;20060;-75
2022/04/18 05:12:37;;;;;;;3.45;2.22;;;;;;;5.48;85.17;99323.31;3145131;28;20053;-74
2022/04/18 05:14:09;;;;;;;3.90;1.98;;;;;;;5.46;85.20;99326.81;3144962;28;20052;-74
2022/04/18 05:15:40;;;;;;;3.40;1.92;;;;;;;5.36;85.20;99323.69;3143037;28;20094;-74
2022/04/18 05:17:12;;;;;;;3.30;1.85;;;;;;;5.36;85.25;99328.03;3145518;28;20048;-74
2022/04/18 05:18:44;;;;;;;3.70;2.13;;;;;;;5.33;85.21;99325.53;3144943;28;20127;-74
2022/04/18 05:20:16;;;;;;;3.35;1.92;;;;;;;5.18;85.09;99295.88;3140159;28;20491;-74
2022/04/18 05:21:48;;;;;;;3.60;2.17;;;;;;;5.33;85.19;99316.03;3145202;28;20055;-74
2022/04/18 05:23:21;;;;;;;6.25;2.30;;;;;;;5.43;85.27;99324.34;3143178;28;20436;-74
2022/04/18 05:24:55;;;;;;;4.03;2.38;;;;;;;5.48;85.37;99320.72;3145478;28;20080;-74
2022/04/18 05:26:26;;;;;;;2.95;2.15;;;;;;;5.50;85.42;99318.06;3144827;28;20568;-74
2022/04/18 05:28:00;;;;;;;2.45;1.80;;;;;;;5.56;85.29;99328.22;3144749;28;20037;-75
2022/04/18 05:29:31;;;;;;;3.22;2.22;;;;;;;5.53;85.30;99327.47;3145014;28;20492;-74
2022/04/18 05:31:03;;;;;;;6.05;2.20;;;;;;;5.52;85.00;99323.19;3144862;28;20114;-74
2022/04/18 05:32:35;;;;;;;3.35;1.70;;;;;;;5.45;85.02;99325.97;3144053;28;20103;-75
2022/04/18 05:34:07;;;;;;;3.08;1.90;;;;;;;5.43;84.91;99327.75;3144841;28;20048;-74
2022/04/18 05:35:39;;;;;;;2.17;1.58;;;;;;;5.40;84.76;99324.44;3144970;28;20056;-74
2022/04/18 05:37:11;;;;;;;2.45;1.85;;;;;;;5.36;84.76;99320.28;3144963;28;20047;-74
2022/04/18 05:38:43;;;;;;;2.40;1.90;;;;;;;5.31;84.88;99312.66;3144915;28;20441;-74
2022/04/18 05:40:15;;;;;;;5.28;2.78;;;;;;;5.37;84.89;99329.69;3143710;28;20055;-74
2022/04/18 05:41:47;;;;;;;4.07;2.15;;;;;;;5.38;85.09;99324.50;3141357;28;20194;-74
2022/04/18 05:43:20;;;;;;;4.38;1.83;;;;;;;5.28;84.98;99322.25;3145141;28;20052;-74
2022/04/18 05:44:52;;;;;;;2.33;1.50;;;;;;;5.29;84.57;99337.66;3142436;28;20057;-74
2022/04/18 05:46:26;;;;;;;3.22;1.58;;;;;;;5.30;84.50;99341.13;3144018;28;20052;-74
2022/04/18 05:47:58;;;;;;;5.75;1.85;;;;;;;5.31;84.51;99343.63;3139368;28;20045;-74
2022/04/18 05:49:28;;;;;;;4.75;1.83;;;;;;;5.38;84.41;99341.72;3145779;28;20148;-74
2022/04/18 05:51:00;;;;;;;4.68;2.22;;;;;;;5.41;84.48;99339.03;3147755;28;20143;-74
2022/04/18 05:52:31;;;;;;;3.38;1.63;;;;;;;5.46;84.24;99339.72;3145948;28;20057;-74
2022/04/18 05:54:03;;;;;;;3.65;2.05;;;;;;;5.51;84.35;99347.34;3140059;28;20056;-74
2022/04/18 05:55:37;;;;;;;3.13;1.67;;;;;;;5.48;84.40;99343.13;3145358;28;20057;-74
2022/04/18 05:57:08;;;;;;;4.68;2.20;;;;;;;5.41;84.21;99329.56;3147604;28;20071;-74
2022/04/18 05:58:42;;;;;;;3.75;1.75;;;;;;;5.49;84.14;99342.22;3134015;28;20079;-73
2022/04/18 06:00:14;;;;;;;;;;;;;;;5.44;84.00;99346.69;3148229;28;20049;-74
2022/04/18 06:01:46;;;;;;;1.77;1.00;;;;;;;5.38;83.68;99344.28;3146946;28;19920;-74
2022/04/18 06:03:18;;;;;;;4.03;1.40;;;;;;;5.36;83.48;99340.94;3147430;28;20572;-74
2022/04/18 06:04:50;;;;;;;1.85;1.13;;;;;;;5.37;83.54;99345.19;3147523;28;20056;-74
2022/04/18 06:06:22;;;;;;;2.90;1.20;;;;;;;5.37;83.99;99350.34;3143592;28;20185;-74
2022/04/18 06:07:54;;;;;;;2.38;1.42;;;;;;;5.38;84.05;99344.28;3147292;28;20382;-74
2022/04/18 06:09:26;;;;;;;3.63;1.50;;;;;;;5.36;84.21;99351.25;3147387;28;20406;-74
2022/04/18 06:10:58;;;;;;;1.83;1.33;;;;;;;5.43;84.25;99347.56;3147298;28;20052;-74
2022/04/18 06:12:30;;;;;;;3.03;1.73;;;;;;;5.47;84.39;99350.03;3147378;28;20598;-74
2022/04/18 06:14:03;;;;;;;2.70;1.60;;;;;;;5.49;84.19;99339.63;3147066;28;20048;-74
2022/04/18 06:15:35;;;;;;;4.45;1.58;;;;;;;5.58;84.29;99344.50;3141782;28;20080;-74
2022/04/18 06:17:07;;;;;;;3.33;1.98;;;;;;;5.60;84.44;99344.47;3136082;28;20057;-74
2022/04/18 06:18:39;;;;;;;2.58;1.67;;;;;;;5.66;84.51;99355.44;3144309;28;20044;-74
2022/04/18 06:20:11;;;;;;;1.92;1.27;;;;;;;5.67;84.52;99354.53;3137738;28;20442;-74
2022/04/18 06:21:43;;;;;;;2.20;1.42;;;;;;;5.74;84.53;99351.75;3140998;28;20053;-74
2022/04/18 06:23:16;;;;;;;2.20;1.20;;;;;;;5.78;84.62;99349.03;3147123;28;20513;-74
2022/04/18 06:24:48;;;;;;;2.50;1.40;;;;;;;5.83;84.59;99352.31;3142072;28;20135;-74
2022/04/18 06:26:19;;;;;;;8.40;1.77;;;;;;;5.80;84.23;99349.84;3140229;28;20072;-74
2022/04/18 06:27:51;;;;;;;3.00;1.60;;;;;;;5.82;84.04;99360.09;3147132;28;20143;-74
2022/04/18 06:29:24;;;;;;;3.13;1.63;;;;;;;5.83;83.76;99356.66;3145260;28;20110;-74
2022/04/18 06:30:56;;;;;;;3.83;1.77;;;;;;;5.76;83.62;99353.41;3140295;28;20083;-74
2022/04/18 06:32:28;;;;;;;2.92;1.83;;;;;;;5.65;83.83;99348.59;3146483;28;20052;-74
2022/04/18 06:34:00;;;;;;;3.53;1.60;;;;;;;5.66;83.96;99352.84;3147164;28;20055;-74
2022/04/18 06:35:32;;;;;;;4.15;2.55;;;;;;;5.77;84.06;99362.00;3147250;28;20429;-74
2022/04/18 06:37:04;;;;;;;4.72;1.60;;;;;;;5.83;84.33;99366.97;3147051;28;20057;-74
2022/04/18 06:38:36;;;;;;;3.88;1.38;;;;;;;5.77;84.52;99349.94;3146791;28;20048;-74
2022/04/18 06:40:08;;;;;;;2.13;1.10;;;;;;;5.87;84.20;99360.81;3136033;28;20049;-74
2022/04/18 06:41:40;;;;;;;2.30;1.20;;;;;;;5.85;83.57;99365.16;3135951;28;20041;-74
2022/04/18 06:43:12;;;;;;;2.15;1.27;;;;;;;5.84;83.36;99369.50;3140783;28;20049;-73
2022/04/18 06:44:45;;;;;;;4.18;1.33;;;;;;;5.77;83.27;99360.28;3147257;28;20048;-74
2022/04/18 06:46:17;;;;;;;2.20;1.35;;;;;;;5.78;83.33;99348.19;3142256;28;20448;-74
2022/04/18 06:47:49;;;;;;;2.42;1.17;;;;;;;5.88;83.29;99359.91;3143663;28;20110;-74
2022/04/18 06:49:21;;;;;;;3.72;1.40;;;;;;;5.89;83.42;99362.44;3143822;28;20059;-74
2022/04/18 06:50:53;;;;;;;4.82;0.93;;;;;;;5.93;82.62;99369.22;3139179;28;20052;-74
2022/04/18 06:52:25;;;;;;;1.55;0.90;;;;;;;5.89;82.21;99369.38;3145345;28;20155;-73
2022/04/18 06:53:57;;;;;;;1.40;0.70;;;;;;;5.81;81.90;99359.25;3138934;28;20052;-74
2022/04/18 06:56:58;;;;;;;2.40;0.93;;;;;;;5.90;81.89;99368.47;3144932;28;20053;-74
2022/04/18 06:57:20;;;;;;;1.20;0.60;;;;;;;5.88;81.66;99371.06;3132425;28;20133;-74
2022/04/18 06:58:52;;;;;;;0.80;0.30;;;;;;;5.89;81.40;99377.97;3146606;28;20049;-74
2022/04/18 07:00:27;;;;;;;1.02;0.50;;;;;;;5.89;81.11;99374.53;3146290;28;20056;-74
2022/04/18 07:02:00;;;;;;;6.18;0.90;;;;;;;5.83;80.92;99364.41;3146942;28;20414;-74
2022/04/18 07:03:32;;;;;;;1.42;0.60;;;;;;;5.85;80.85;99367.75;3144616;28;20044;-74
2022/04/18 07:05:04;;;;;;;0.77;0.47;;;;;;;5.82;80.52;99367.84;3143189;28;20057;-74
2022/04/18 07:06:36;;;;;;;2.80;1.38;;;;;;;5.83;80.33;99375.56;3144403;28;20060;-74
2022/04/18 07:08:08;;;;;;;4.10;1.35;;;;;;;5.87;80.40;99379.72;3146064;28;20513;-77
2022/04/18 07:09:40;;;;;;;5.20;2.90;;;;;;;5.91;80.43;99378.72;3141761;28;20048;-74
2022/04/18 07:11:12;;;;;;;3.10;1.52;;;;;;;5.97;80.65;99376.88;3137658;28;20053;-74
2022/04/18 07:12:44;;;;;;;1.95;0.93;;;;;;;6.06;80.67;99386.91;3144577;28;20052;-74
2022/04/18 07:14:16;;;;;;;1.83;0.90;;;;;;;6.03;80.62;99382.69;3135747;28;20049;-75
2022/04/18 07:15:50;;;;;;;0.93;0.40;;;;;;;6.06;80.19;99387.78;3140605;28;20044;-74
2022/04/18 07:17:22;;;;;;;1.05;0.40;;;;;;;6.02;79.22;99383.59;3146384;28;20465;-74
2022/04/18 07:18:54;;;;;;;0.50;0.30;;;;;;;6.01;78.79;99394.84;3146437;28;20049;-74
2022/04/18 07:20:26;;;;;;;0.57;0.30;;;;;;;6.03;78.50;99389.59;3144573;28;20052;-74
2022/04/18 07:21:58;;;;;;;0.40;0.20;;;;;;;6.05;78.21;99396.41;3145860;28;20536;-74
2022/04/18 07:23:30;;;;;;;1.30;0.40;;;;;;;6.03;77.90;99380.09;3146532;28;20052;-75
2022/04/18 07:25:02;;;;;;;0.85;0.38;;;;;;;6.09;77.76;99397.16;3145743;28;20091;-74
2022/04/18 07:26:34;;;;;;;1.13;0.30;;;;;;;6.07;77.90;99386.88;3146190;28;20088;-75
2022/04/18 07:28:07;;;;;;;1.17;0.32;;;;;;;6.22;78.12;99400.19;3145907;28;20619;-74
2022/04/18 07:29:39;;;;;;;1.07;0.40;;;;;;;6.26;78.07;99394.84;3146269;28;20056;-74